sensor_id;sensor_type;location;lat;lon;timestamp;pressure;altitude;pressure_sealevel;temperature;humidity
21300;BME280;10809;49.476;11.016;2022-08-03T00:02:06;98305.47;;;23.74;42.56
21300;BME280;10809;49.476;11.016;2022-08-03T00:04:39;98309.34;;;23.72;42.68
21300;BME280;10809;49.476;11.016;2022-08-03T00:07:09;98300.88;;;23.67;42.94
21300;BME280;10809;49.476;11.016;2022-08-03T00:09:43;98302.09;;;23.64;43.01
21300;BME280;10809;49.476;11.016;2022-08-03T00:12:16;98301.69;;;23.59;43.04
21300;BME280;10809;49.476;11.016;2022-08-03T00:14:47;98305.59;;;23.57;43.11
21300;BME280;10809;49.476;11.016;2022-08-03T00:17:17;98306.91;;;23.53;43.18
21300;BME280;10809;49.476;11.016;2022-08-03T00:19:47;98303.72;;;23.49;43.52
21300;BME280;10809;49.476;11.016;2022-08-03T00:22:18;98305.03;;;23.45;43.26
21300;BME280;10809;49.476;11.016;2022-08-03T00:24:48;98305.53;;;23.41;43.53
21300;BME280;10809;49.476;11.016;2022-08-03T00:27:18;98310.44;;;23.37;43.46
21300;BME280;10809;49.476;11.016;2022-08-03T00:29:48;98307.22;;;23.34;43.71
21300;BME280;10809;49.476;11.016;2022-08-03T00:32:19;98306.69;;;23.30;43.57
21300;BME280;10809;49.476;11.016;2022-08-03T00:34:55;98307.03;;;23.27;43.50
21300;BME280;10809;49.476;11.016;2022-08-03T00:37:26;98303.84;;;23.24;44.04
21300;BME280;10809;49.476;11.016;2022-08-03T00:39:56;98308.53;;;23.22;43.92
21300;BME280;10809;49.476;11.016;2022-08-03T00:42:30;98308.88;;;23.19;43.82
21300;BME280;10809;49.476;11.016;2022-08-03T00:45:00;98314.44;;;23.17;43.95
21300;BME280;10809;49.476;11.016;2022-08-03T00:47:33;98313.06;;;23.13;43.85
21300;BME280;10809;49.476;11.016;2022-08-03T00:50:04;98313.38;;;23.10;44.11
21300;BME280;10809;49.476;11.016;2022-08-03T00:52:35;98318.28;;;23.06;44.06
21300;BME280;10809;49.476;11.016;2022-08-03T00:55:09;98318.78;;;23.02;43.94
21300;BME280;10809;49.476;11.016;2022-08-03T00:57:41;98316.25;;;23.00;44.10
21300;BME280;10809;49.476;11.016;2022-08-03T01:00:13;98317.34;;;22.98;44.33
21300;BME280;10809;49.476;11.016;2022-08-03T01:02:45;98314.97;;;22.95;44.30
21300;BME280;10809;49.476;11.016;2022-08-03T01:05:15;98311.78;;;22.91;44.18
21300;BME280;10809;49.476;11.016;2022-08-03T01:07:58;98310.22;;;22.89;44.32
21300;BME280;10809;49.476;11.016;2022-08-03T01:13:48;98311.91;;;22.82;44.13
21300;BME280;10809;49.476;11.016;2022-08-03T01:16:27;98311.19;;;22.80;44.18
21300;BME280;10809;49.476;11.016;2022-08-03T01:22:09;98308.50;;;22.72;44.12
21300;BME280;10809;49.476;11.016;2022-08-03T01:30:50;98317.84;;;22.60;44.25
21300;BME280;10809;49.476;11.016;2022-08-03T01:33:27;98313.78;;;22.56;43.98
21300;BME280;10809;49.476;11.016;2022-08-03T01:36:05;98309.72;;;22.52;43.96
21300;BME280;10809;49.476;11.016;2022-08-03T01:38:42;98308.31;;;22.48;44.23
21300;BME280;10809;49.476;11.016;2022-08-03T01:41:19;98304.25;;;22.44;43.74
21300;BME280;10809;49.476;11.016;2022-08-03T01:43:52;98309.13;;;22.40;43.99
21300;BME280;10809;49.476;11.016;2022-08-03T01:46:23;98310.47;;;22.36;43.87
21300;BME280;10809;49.476;11.016;2022-08-03T01:48:55;98306.22;;;22.34;43.87
21300;BME280;10809;49.476;11.016;2022-08-03T01:51:27;98305.81;;;22.29;43.70
21300;BME280;10809;49.476;11.016;2022-08-03T01:54:01;98306.28;;;22.24;43.86
21300;BME280;10809;49.476;11.016;2022-08-03T01:56:34;98295.97;;;22.20;44.11
21300;BME280;10809;49.476;11.016;2022-08-03T01:59:06;98305.25;;;22.17;44.00
21300;BME280;10809;49.476;11.016;2022-08-03T02:01:37;98297.59;;;22.13;44.16
21300;BME280;10809;49.476;11.016;2022-08-03T02:04:09;98294.56;;;22.08;44.23
21300;BME280;10809;49.476;11.016;2022-08-03T02:06:42;98297.56;;;22.05;44.26
21300;BME280;10809;49.476;11.016;2022-08-03T02:09:14;98288.94;;;22.01;44.47
21300;BME280;10809;49.476;11.016;2022-08-03T02:11:47;98291.78;;;22.00;44.38
21300;BME280;10809;49.476;11.016;2022-08-03T02:14:19;98291.25;;;21.96;44.62
21300;BME280;10809;49.476;11.016;2022-08-03T02:16:53;98291.72;;;21.92;44.56
21300;BME280;10809;49.476;11.016;2022-08-03T02:19:25;98290.03;;;21.91;44.45
21300;BME280;10809;49.476;11.016;2022-08-03T02:21:57;98301.13;;;21.88;44.57
21300;BME280;10809;49.476;11.016;2022-08-03T02:24:28;98299.59;;;21.85;44.66
21300;BME280;10809;49.476;11.016;2022-08-03T02:27:00;98306.13;;;21.83;44.22
21300;BME280;10809;49.476;11.016;2022-08-03T02:29:35;98293.81;;;21.80;44.49
21300;BME280;10809;49.476;11.016;2022-08-03T02:32:13;98297.69;;;21.78;44.71
21300;BME280;10809;49.476;11.016;2022-08-03T02:34:51;98298.00;;;21.75;44.94
21300;BME280;10809;49.476;11.016;2022-08-03T02:37:26;98291.91;;;21.73;44.90
21300;BME280;10809;49.476;11.016;2022-08-03T02:40:01;98299.28;;;21.71;45.23
21300;BME280;10809;49.476;11.016;2022-08-03T02:42:32;98294.03;;;21.69;45.22
21300;BME280;10809;49.476;11.016;2022-08-03T02:45:06;98297.19;;;21.65;44.97
21300;BME280;10809;49.476;11.016;2022-08-03T02:47:44;98302.88;;;21.62;45.39
21300;BME280;10809;49.476;11.016;2022-08-03T02:50:16;98300.50;;;21.59;45.43
21300;BME280;10809;49.476;11.016;2022-08-03T02:52:48;98285.63;;;21.55;45.80
21300;BME280;10809;49.476;11.016;2022-08-03T02:55:21;98290.47;;;21.51;46.17
21300;BME280;10809;49.476;11.016;2022-08-03T02:57:53;98297.03;;;21.48;45.63
21300;BME280;10809;49.476;11.016;2022-08-03T03:00:25;98298.16;;;21.46;46.02
21300;BME280;10809;49.476;11.016;2022-08-03T03:02:57;98294.09;;;21.42;45.83
21300;BME280;10809;49.476;11.016;2022-08-03T03:05:29;98296.25;;;21.38;45.83
21300;BME280;10809;49.476;11.016;2022-08-03T03:07:59;98292.16;;;21.34;45.65
21300;BME280;10809;49.476;11.016;2022-08-03T03:10:33;98302.53;;;21.29;45.72
21300;BME280;10809;49.476;11.016;2022-08-03T03:13:04;98302.84;;;21.26;45.95
21300;BME280;10809;49.476;11.016;2022-08-03T03:15:36;98299.47;;;21.24;46.18
21300;BME280;10809;49.476;11.016;2022-08-03T03:18:12;98301.78;;;21.19;45.95
21300;BME280;10809;49.476;11.016;2022-08-03T03:20:44;98300.41;;;21.15;46.09
21300;BME280;10809;49.476;11.016;2022-08-03T03:23:16;98301.53;;;21.13;46.03
21300;BME280;10809;49.476;11.016;2022-08-03T03:25:47;98299.13;;;21.10;46.10
21300;BME280;10809;49.476;11.016;2022-08-03T03:28:18;98296.91;;;21.05;46.29
21300;BME280;10809;49.476;11.016;2022-08-03T03:30:52;98298.06;;;21.03;46.18
21300;BME280;10809;49.476;11.016;2022-08-03T03:33:29;98299.19;;;21.00;46.25
21300;BME280;10809;49.476;11.016;2022-08-03T03:36:00;98300.34;;;20.98;46.14
21300;BME280;10809;49.476;11.016;2022-08-03T03:38:31;98300.50;;;20.96;46.06
21300;BME280;10809;49.476;11.016;2022-08-03T03:41:02;98297.06;;;20.94;46.31
21300;BME280;10809;49.476;11.016;2022-08-03T03:43:33;98303.59;;;20.92;46.00
21300;BME280;10809;49.476;11.016;2022-08-03T03:46:07;98299.22;;;20.91;46.62
21300;BME280;10809;49.476;11.016;2022-08-03T03:48:38;98306.44;;;20.90;46.76
21300;BME280;10809;49.476;11.016;2022-08-03T03:51:09;98305.59;;;20.90;47.07
21300;BME280;10809;49.476;11.016;2022-08-03T03:53:39;98304.75;;;20.89;47.00
21300;BME280;10809;49.476;11.016;2022-08-03T03:56:13;98310.28;;;20.88;46.93
21300;BME280;10809;49.476;11.016;2022-08-03T03:58:43;98314.81;;;20.87;47.16
21300;BME280;10809;49.476;11.016;2022-08-03T04:01:13;98305.06;;;20.86;47.24
21300;BME280;10809;49.476;11.016;2022-08-03T04:03:47;98305.34;;;20.83;47.13
21300;BME280;10809;49.476;11.016;2022-08-03T04:06:18;98303.63;;;20.82;47.23
21300;BME280;10809;49.476;11.016;2022-08-03T04:09:07;98303.13;;;20.79;47.46
21300;BME280;10809;49.476;11.016;2022-08-03T04:11:59;98316.72;;;20.77;47.28
21300;BME280;10809;49.476;11.016;2022-08-03T04:14:34;98310.78;;;20.74;47.15
21300;BME280;10809;49.476;11.016;2022-08-03T04:17:08;98311.94;;;20.71;47.41
21300;BME280;10809;49.476;11.016;2022-08-03T04:19:50;98311.38;;;20.68;47.15
21300;BME280;10809;49.476;11.016;2022-08-03T04:22:25;98317.91;;;20.65;47.16
21300;BME280;10809;49.476;11.016;2022-08-03T04:25:00;98317.19;;;20.63;47.08
21300;BME280;10809;49.476;11.016;2022-08-03T04:27:35;98317.34;;;20.62;47.25
21300;BME280;10809;49.476;11.016;2022-08-03T04:30:07;98324.72;;;20.60;47.45
21300;BME280;10809;49.476;11.016;2022-08-03T04:32:38;98323.84;;;20.59;47.61
21300;BME280;10809;49.476;11.016;2022-08-03T04:35:09;98327.53;;;20.58;47.50
21300;BME280;10809;49.476;11.016;2022-08-03T04:37:48;98323.31;;;20.56;47.68
21300;BME280;10809;49.476;11.016;2022-08-03T04:40:32;98326.97;;;20.55;47.61
21300;BME280;10809;49.476;11.016;2022-08-03T04:43:07;98324.28;;;20.55;47.77
21300;BME280;10809;49.476;11.016;2022-08-03T04:45:41;98325.16;;;20.55;47.83
21300;BME280;10809;49.476;11.016;2022-08-03T04:48:13;98319.78;;;20.55;48.13
21300;BME280;10809;49.476;11.016;2022-08-03T04:50:45;98329.53;;;20.56;48.29
21300;BME280;10809;49.476;11.016;2022-08-03T04:53:16;98328.69;;;20.56;48.21
21300;BME280;10809;49.476;11.016;2022-08-03T04:55:47;98338.31;;;20.58;48.27
21300;BME280;10809;49.476;11.016;2022-08-03T04:58:17;98333.78;;;20.59;48.21
21300;BME280;10809;49.476;11.016;2022-08-03T05:00:47;98334.63;;;20.59;48.30
21300;BME280;10809;49.476;11.016;2022-08-03T05:03:26;98341.00;;;20.58;48.19
21300;BME280;10809;49.476;11.016;2022-08-03T05:06:00;98339.84;;;20.61;48.26
21300;BME280;10809;49.476;11.016;2022-08-03T05:08:30;98339.84;;;20.61;48.08
21300;BME280;10809;49.476;11.016;2022-08-03T05:11:01;98333.50;;;20.62;48.07
21300;BME280;10809;49.476;11.016;2022-08-03T05:13:31;98337.03;;;20.62;48.13
21300;BME280;10809;49.476;11.016;2022-08-03T05:16:01;98337.72;;;20.64;47.83
21300;BME280;10809;49.476;11.016;2022-08-03T05:18:32;98336.75;;;20.65;47.52
21300;BME280;10809;49.476;11.016;2022-08-03T05:21:03;98338.44;;;20.66;48.13
21300;BME280;10809;49.476;11.016;2022-08-03T05:23:37;98340.81;;;20.69;48.05
21300;BME280;10809;49.476;11.016;2022-08-03T05:26:07;98348.75;;;20.71;47.90
21300;BME280;10809;49.476;11.016;2022-08-03T05:28:38;98345.91;;;20.72;47.83
21300;BME280;10809;49.476;11.016;2022-08-03T05:31:08;98351.00;;;20.75;47.66
21300;BME280;10809;49.476;11.016;2022-08-03T05:33:38;98341.91;;;20.76;48.19
21300;BME280;10809;49.476;11.016;2022-08-03T05:36:09;98339.94;;;20.78;48.25
21300;BME280;10809;49.476;11.016;2022-08-03T05:38:39;98344.88;;;20.83;47.75
21300;BME280;10809;49.476;11.016;2022-08-03T05:41:10;98342.03;;;20.84;47.83
21300;BME280;10809;49.476;11.016;2022-08-03T05:43:40;98341.03;;;20.85;47.90
21300;BME280;10809;49.476;11.016;2022-08-03T05:46:11;98345.13;;;20.89;47.92
21300;BME280;10809;49.476;11.016;2022-08-03T05:48:41;98347.69;;;20.91;47.90
21300;BME280;10809;49.476;11.016;2022-08-03T05:51:12;98350.06;;;20.94;48.06
21300;BME280;10809;49.476;11.016;2022-08-03T05:53:43;98353.47;;;20.96;47.90
21300;BME280;10809;49.476;11.016;2022-08-03T05:56:13;98350.50;;;20.99;48.26
21300;BME280;10809;49.476;11.016;2022-08-03T05:58:47;98349.38;;;21.01;48.55
21300;BME280;10809;49.476;11.016;2022-08-03T06:01:20;98344.66;;;21.03;48.26
21300;BME280;10809;49.476;11.016;2022-08-03T06:03:51;98349.75;;;21.06;48.55
21300;BME280;10809;49.476;11.016;2022-08-03T06:06:21;98355.69;;;21.10;48.22
21300;BME280;10809;49.476;11.016;2022-08-03T06:08:58;98343.63;;;21.14;48.26
21300;BME280;10809;49.476;11.016;2022-08-03T06:11:28;98352.25;;;21.17;48.63
21300;BME280;10809;49.476;11.016;2022-08-03T06:13:58;98351.78;;;21.22;48.90
21300;BME280;10809;49.476;11.016;2022-08-03T06:16:29;98358.59;;;21.26;48.74
21300;BME280;10809;49.476;11.016;2022-08-03T06:19:00;98353.72;;;21.29;48.38
21300;BME280;10809;49.476;11.016;2022-08-03T06:21:30;98352.44;;;21.33;48.28
21300;BME280;10809;49.476;11.016;2022-08-03T06:24:00;98349.31;;;21.38;48.24
21300;BME280;10809;49.476;11.016;2022-08-03T06:26:31;98350.69;;;21.42;48.20
21300;BME280;10809;49.476;11.016;2022-08-03T06:29:01;98352.63;;;21.49;48.67
21300;BME280;10809;49.476;11.016;2022-08-03T06:31:32;98348.13;;;21.58;48.39
21300;BME280;10809;49.476;11.016;2022-08-03T06:34:03;98351.66;;;21.68;48.83
21300;BME280;10809;49.476;11.016;2022-08-03T06:36:34;98353.28;;;21.79;48.80
21300;BME280;10809;49.476;11.016;2022-08-03T06:39:07;98339.56;;;21.90;49.11
21300;BME280;10809;49.476;11.016;2022-08-03T06:41:38;98342.72;;;22.03;49.34
21300;BME280;10809;49.476;11.016;2022-08-03T06:44:12;98344.53;;;22.20;48.69
21300;BME280;10809;49.476;11.016;2022-08-03T06:46:42;98339.97;;;22.38;48.80
21300;BME280;10809;49.476;11.016;2022-08-03T06:49:12;98341.16;;;22.61;48.41
21300;BME280;10809;49.476;11.016;2022-08-03T06:51:46;98340.78;;;22.89;47.73
21300;BME280;10809;49.476;11.016;2022-08-03T06:54:17;98345.69;;;23.20;47.61
21300;BME280;10809;49.476;11.016;2022-08-03T06:56:47;98348.66;;;23.50;46.94
21300;BME280;10809;49.476;11.016;2022-08-03T06:59:17;98344.03;;;23.84;46.97
21300;BME280;10809;49.476;11.016;2022-08-03T07:01:48;98347.06;;;24.13;46.21
21300;BME280;10809;49.476;11.016;2022-08-03T07:04:18;98343.03;;;24.41;46.30
21300;BME280;10809;49.476;11.016;2022-08-03T07:06:48;98344.50;;;24.68;45.72
21300;BME280;10809;49.476;11.016;2022-08-03T07:09:19;98337.19;;;24.93;45.69
21300;BME280;10809;49.476;11.016;2022-08-03T07:11:49;98342.31;;;25.18;45.44
21300;BME280;10809;49.476;11.016;2022-08-03T07:14:20;98341.19;;;25.43;44.83
21300;BME280;10809;49.476;11.016;2022-08-03T07:16:50;98341.94;;;25.68;44.84
21300;BME280;10809;49.476;11.016;2022-08-03T07:19:21;98343.81;;;25.90;44.59
21300;BME280;10809;49.476;11.016;2022-08-03T07:21:54;98338.56;;;26.11;44.41
21300;BME280;10809;49.476;11.016;2022-08-03T07:24:25;98339.13;;;26.29;44.14
21300;BME280;10809;49.476;11.016;2022-08-03T07:26:55;98335.56;;;26.43;42.84
21300;BME280;10809;49.476;11.016;2022-08-03T07:29:26;98329.03;;;26.52;43.08
21300;BME280;10809;49.476;11.016;2022-08-03T07:31:56;98334.41;;;26.60;42.10
21300;BME280;10809;49.476;11.016;2022-08-03T07:34:26;98330.97;;;26.66;42.47
21300;BME280;10809;49.476;11.016;2022-08-03T07:36:57;98329.38;;;26.72;41.93
21300;BME280;10809;49.476;11.016;2022-08-03T07:39:30;98326.94;;;26.77;42.31
21300;BME280;10809;49.476;11.016;2022-08-03T07:42:00;98331.63;;;26.83;41.93
21300;BME280;10809;49.476;11.016;2022-08-03T07:44:31;98333.78;;;26.87;42.12
21300;BME280;10809;49.476;11.016;2022-08-03T07:47:01;98333.03;;;26.93;41.93
21300;BME280;10809;49.476;11.016;2022-08-03T07:49:31;98337.72;;;26.99;41.63
21300;BME280;10809;49.476;11.016;2022-08-03T07:52:02;98333.25;;;27.06;41.48
21300;BME280;10809;49.476;11.016;2022-08-03T07:54:51;98327.88;;;27.13;41.24
21300;BME280;10809;49.476;11.016;2022-08-03T07:57:21;98332.38;;;27.20;41.21
21300;BME280;10809;49.476;11.016;2022-08-03T07:59:51;98334.34;;;27.26;40.98
21300;BME280;10809;49.476;11.016;2022-08-03T08:02:25;98330.72;;;27.34;41.46
21300;BME280;10809;49.476;11.016;2022-08-03T08:04:55;98319.06;;;27.40;40.66
21300;BME280;10809;49.476;11.016;2022-08-03T08:07:26;98322.50;;;27.48;40.91
21300;BME280;10809;49.476;11.016;2022-08-03T08:09:56;98314.69;;;27.60;40.33
21300;BME280;10809;49.476;11.016;2022-08-03T08:12:27;98314.84;;;27.73;40.24
21300;BME280;10809;49.476;11.016;2022-08-03T08:15:00;98311.69;;;27.90;40.38
21300;BME280;10809;49.476;11.016;2022-08-03T08:17:44;98314.78;;;28.08;40.09
21300;BME280;10809;49.476;11.016;2022-08-03T08:20:17;98301.94;;;28.24;39.77
21300;BME280;10809;49.476;11.016;2022-08-03T08:22:48;98310.06;;;28.38;40.12
21300;BME280;10809;49.476;11.016;2022-08-03T08:25:18;98299.91;;;28.53;39.81
21300;BME280;10809;49.476;11.016;2022-08-03T08:27:49;98302.31;;;28.69;40.19
21300;BME280;10809;49.476;11.016;2022-08-03T08:30:21;98301.84;;;28.87;39.35
21300;BME280;10809;49.476;11.016;2022-08-03T08:32:51;98289.78;;;29.02;38.68
21300;BME280;10809;49.476;11.016;2022-08-03T08:35:22;98300.31;;;29.18;38.80
21300;BME280;10809;49.476;11.016;2022-08-03T08:37:52;98292.19;;;29.31;37.96
21300;BME280;10809;49.476;11.016;2022-08-03T08:40:23;98297.75;;;29.44;38.11
21300;BME280;10809;49.476;11.016;2022-08-03T08:43:00;98295.44;;;29.54;38.25
21300;BME280;10809;49.476;11.016;2022-08-03T08:45:31;98295.88;;;29.58;37.06
21300;BME280;10809;49.476;11.016;2022-08-03T08:48:02;98297.16;;;29.62;37.51
21300;BME280;10809;49.476;11.016;2022-08-03T08:50:33;98294.84;;;29.65;36.22
21300;BME280;10809;49.476;11.016;2022-08-03T08:53:06;98288.13;;;29.68;36.76
21300;BME280;10809;49.476;11.016;2022-08-03T08:55:37;98291.09;;;29.73;36.97
21300;BME280;10809;49.476;11.016;2022-08-03T08:58:08;98286.06;;;29.77;36.75
21300;BME280;10809;49.476;11.016;2022-08-03T09:00:39;98289.84;;;29.82;36.81
21300;BME280;10809;49.476;11.016;2022-08-03T09:03:13;98291.09;;;29.86;36.63
21300;BME280;10809;49.476;11.016;2022-08-03T09:05:47;98290.75;;;29.89;36.18
21300;BME280;10809;49.476;11.016;2022-08-03T09:08:17;98280.66;;;29.90;35.51
21300;BME280;10809;49.476;11.016;2022-08-03T09:10:51;98278.56;;;29.92;36.19
21300;BME280;10809;49.476;11.016;2022-08-03T09:13:21;98281.72;;;29.95;35.64
21300;BME280;10809;49.476;11.016;2022-08-03T09:16:18;98275.63;;;30.00;36.59
21300;BME280;10809;49.476;11.016;2022-08-03T09:18:50;98273.09;;;30.05;35.07
21300;BME280;10809;49.476;11.016;2022-08-03T09:21:23;98277.94;;;30.09;34.62
21300;BME280;10809;49.476;11.016;2022-08-03T09:23:55;98275.00;;;30.11;34.56
21300;BME280;10809;49.476;11.016;2022-08-03T09:26:27;98274.34;;;30.15;33.86
21300;BME280;10809;49.476;11.016;2022-08-03T09:29:06;98271.41;;;30.17;35.12
21300;BME280;10809;49.476;11.016;2022-08-03T09:31:40;98272.69;;;30.21;34.23
21300;BME280;10809;49.476;11.016;2022-08-03T09:34:15;98266.59;;;30.25;34.84
21300;BME280;10809;49.476;11.016;2022-08-03T09:36:47;98268.28;;;30.33;34.67
21300;BME280;10809;49.476;11.016;2022-08-03T09:39:20;98265.59;;;30.39;33.82
21300;BME280;10809;49.476;11.016;2022-08-03T09:42:13;98265.34;;;30.47;34.72
21300;BME280;10809;49.476;11.016;2022-08-03T09:44:47;98262.19;;;30.50;34.16
21300;BME280;10809;49.476;11.016;2022-08-03T09:47:34;98258.00;;;30.54;33.60
21300;BME280;10809;49.476;11.016;2022-08-03T09:50:08;98262.41;;;30.55;33.07
21300;BME280;10809;49.476;11.016;2022-08-03T09:52:40;98267.00;;;30.55;32.36
21300;BME280;10809;49.476;11.016;2022-08-03T09:55:12;98265.13;;;30.55;32.29
21300;BME280;10809;49.476;11.016;2022-08-03T09:57:43;98259.44;;;30.57;32.91
21300;BME280;10809;49.476;11.016;2022-08-03T10:00:16;98257.34;;;30.59;32.41
21300;BME280;10809;49.476;11.016;2022-08-03T10:02:47;98255.00;;;30.62;32.58
21300;BME280;10809;49.476;11.016;2022-08-03T10:05:31;98257.09;;;30.67;33.19
21300;BME280;10809;49.476;11.016;2022-08-03T10:08:16;98257.53;;;30.70;32.35
21300;BME280;10809;49.476;11.016;2022-08-03T10:10:48;98257.09;;;30.73;31.64
21300;BME280;10809;49.476;11.016;2022-08-03T10:13:22;98256.03;;;30.74;32.12
21300;BME280;10809;49.476;11.016;2022-08-03T10:15:52;98253.09;;;30.76;31.19
21300;BME280;10809;49.476;11.016;2022-08-03T10:18:23;98253.72;;;30.78;31.07
21300;BME280;10809;49.476;11.016;2022-08-03T10:20:58;98245.28;;;30.79;31.34
21300;BME280;10809;49.476;11.016;2022-08-03T10:23:37;98250.56;;;30.81;32.04
21300;BME280;10809;49.476;11.016;2022-08-03T10:26:12;98238.34;;;30.83;31.54
21300;BME280;10809;49.476;11.016;2022-08-03T10:28:48;98237.91;;;30.86;31.00
21300;BME280;10809;49.476;11.016;2022-08-03T10:31:21;98239.41;;;30.89;31.04
21300;BME280;10809;49.476;11.016;2022-08-03T10:33:54;98237.09;;;30.92;30.42
21300;BME280;10809;49.476;11.016;2022-08-03T10:36:30;98241.06;;;30.96;30.60
21300;BME280;10809;49.476;11.016;2022-08-03T10:39:01;98236.84;;;31.00;29.39
21300;BME280;10809;49.476;11.016;2022-08-03T10:41:36;98232.63;;;31.04;29.46
21300;BME280;10809;49.476;11.016;2022-08-03T10:44:09;98221.25;;;31.07;29.27
21300;BME280;10809;49.476;11.016;2022-08-03T10:46:40;98218.31;;;31.09;29.72
21300;BME280;10809;49.476;11.016;2022-08-03T10:49:12;98214.28;;;31.11;29.64
21300;BME280;10809;49.476;11.016;2022-08-03T10:51:44;98222.06;;;31.14;29.18
21300;BME280;10809;49.476;11.016;2022-08-03T10:54:38;98214.47;;;31.16;30.27
21300;BME280;10809;49.476;11.016;2022-08-03T10:57:50;98214.84;;;31.20;29.81
21300;BME280;10809;49.476;11.016;2022-08-03T11:00:47;98215.28;;;31.23;29.99
21300;BME280;10809;49.476;11.016;2022-08-03T11:03:18;98209.34;;;31.26;28.62
21300;BME280;10809;49.476;11.016;2022-08-03T11:05:49;98209.13;;;31.28;28.81
21300;BME280;10809;49.476;11.016;2022-08-03T11:08:32;98199.63;;;31.30;28.75
21300;BME280;10809;49.476;11.016;2022-08-03T11:14:08;98197.09;;;31.36;28.70
21300;BME280;10809;49.476;11.016;2022-08-03T11:16:41;98201.94;;;31.40;28.57
21300;BME280;10809;49.476;11.016;2022-08-03T11:19:16;98195.59;;;31.46;28.42
21300;BME280;10809;49.476;11.016;2022-08-03T11:27:20;98184.94;;;31.63;28.14
21300;BME280;10809;49.476;11.016;2022-08-03T11:40:37;98167.25;;;31.90;27.23
21300;BME280;10809;49.476;11.016;2022-08-03T11:46:06;98164.69;;;31.95;27.08
21300;BME280;10809;49.476;11.016;2022-08-03T11:48:40;98162.34;;;31.98;26.51
21300;BME280;10809;49.476;11.016;2022-08-03T11:51:28;98164.66;;;32.01;26.71
21300;BME280;10809;49.476;11.016;2022-08-03T11:54:01;98168.81;;;32.04;26.29
21300;BME280;10809;49.476;11.016;2022-08-03T11:56:47;98163.97;;;32.06;26.87
21300;BME280;10809;49.476;11.016;2022-08-03T11:59:30;98166.03;;;32.10;26.70
21300;BME280;10809;49.476;11.016;2022-08-03T12:02:12;98157.38;;;32.13;26.37
21300;BME280;10809;49.476;11.016;2022-08-03T12:07:23;98153.94;;;32.18;25.92
21300;BME280;10809;49.476;11.016;2022-08-03T12:10:12;98161.09;;;32.19;26.44
21300;BME280;10809;49.476;11.016;2022-08-03T12:12:42;98151.81;;;32.20;25.53
21300;BME280;10809;49.476;11.016;2022-08-03T12:15:24;98151.81;;;32.20;25.87
21300;BME280;10809;49.476;11.016;2022-08-03T12:17:56;98148.22;;;32.19;25.31
21300;BME280;10809;49.476;11.016;2022-08-03T12:20:28;98138.34;;;32.18;25.39
21300;BME280;10809;49.476;11.016;2022-08-03T12:23:06;98139.16;;;32.19;25.90
21300;BME280;10809;49.476;11.016;2022-08-03T12:25:38;98140.88;;;32.20;26.39
21300;BME280;10809;49.476;11.016;2022-08-03T12:28:19;98135.50;;;32.25;26.22
21300;BME280;10809;49.476;11.016;2022-08-03T12:31:03;98129.13;;;32.31;26.05
21300;BME280;10809;49.476;11.016;2022-08-03T12:36:25;98134.28;;;32.45;25.67
21300;BME280;10809;49.476;11.016;2022-08-03T12:38:58;98127.66;;;32.53;25.21
21300;BME280;10809;49.476;11.016;2022-08-03T12:41:31;98131.13;;;32.60;25.51
21300;BME280;10809;49.476;11.016;2022-08-03T12:44:06;98126.44;;;32.67;25.23
21300;BME280;10809;49.476;11.016;2022-08-03T12:46:39;98131.59;;;32.75;24.63
21300;BME280;10809;49.476;11.016;2022-08-03T12:49:14;98128.81;;;32.81;25.33
21300;BME280;10809;49.476;11.016;2022-08-03T12:54:21;98127.19;;;32.92;24.41
21300;BME280;10809;49.476;11.016;2022-08-03T12:56:56;98122.69;;;32.98;25.18
21300;BME280;10809;49.476;11.016;2022-08-03T12:59:29;98111.84;;;33.03;24.42
21300;BME280;10809;49.476;11.016;2022-08-03T13:02:00;98105.88;;;33.06;23.98
21300;BME280;10809;49.476;11.016;2022-08-03T13:04:33;98105.41;;;33.09;23.95
21300;BME280;10809;49.476;11.016;2022-08-03T13:07:06;98104.13;;;33.11;24.43
21300;BME280;10809;49.476;11.016;2022-08-03T13:09:53;98103.66;;;33.14;24.24
21300;BME280;10809;49.476;11.016;2022-08-03T13:12:26;98102.97;;;33.19;24.48
21300;BME280;10809;49.476;11.016;2022-08-03T13:14:59;98103.91;;;33.24;24.08
21300;BME280;10809;49.476;11.016;2022-08-03T13:17:29;98094.78;;;33.30;23.95
21300;BME280;10809;49.476;11.016;2022-08-03T13:20:00;98093.84;;;33.36;23.53
21300;BME280;10809;49.476;11.016;2022-08-03T13:22:30;98084.88;;;33.41;23.69
21300;BME280;10809;49.476;11.016;2022-08-03T13:25:02;98093.50;;;33.44;23.71
21300;BME280;10809;49.476;11.016;2022-08-03T13:27:33;98093.03;;;33.47;23.94
21300;BME280;10809;49.476;11.016;2022-08-03T13:30:04;98087.91;;;33.51;23.52
21300;BME280;10809;49.476;11.016;2022-08-03T13:32:35;98085.50;;;33.54;23.71
21300;BME280;10809;49.476;11.016;2022-08-03T13:35:06;98092.22;;;33.58;23.68
21300;BME280;10809;49.476;11.016;2022-08-03T13:37:36;98086.81;;;33.63;23.56
21300;BME280;10809;49.476;11.016;2022-08-03T13:40:07;98086.97;;;33.68;23.42
21300;BME280;10809;49.476;11.016;2022-08-03T13:42:38;98089.22;;;33.71;23.71
21300;BME280;10809;49.476;11.016;2022-08-03T13:45:11;98075.91;;;33.75;23.78
21300;BME280;10809;49.476;11.016;2022-08-03T13:47:41;98087.22;;;33.78;23.24
21300;BME280;10809;49.476;11.016;2022-08-03T13:50:12;98082.94;;;33.82;23.59
21300;BME280;10809;49.476;11.016;2022-08-03T13:52:42;98085.78;;;33.87;23.52
21300;BME280;10809;49.476;11.016;2022-08-03T13:55:15;98076.84;;;33.92;23.39
21300;BME280;10809;49.476;11.016;2022-08-03T13:57:45;98075.53;;;33.94;23.71
21300;BME280;10809;49.476;11.016;2022-08-03T14:00:16;98069.09;;;34.00;23.25
21300;BME280;10809;49.476;11.016;2022-08-03T14:02:47;98069.44;;;34.04;22.88
21300;BME280;10809;49.476;11.016;2022-08-03T14:05:17;98065.13;;;34.08;23.23